createdAt,value
2022-09-01T00:00:03.305Z,11.38
2022-09-01T00:02:35.301Z,11.18
2022-09-01T00:05:04.724Z,12.10
2022-09-01T00:07:34.687Z,12.23
2022-09-01T00:10:05.183Z,11.85
2022-09-01T00:12:34.900Z,13.05
2022-09-01T00:15:02.917Z,14.18
2022-09-01T00:17:31.194Z,13.35
2022-09-01T00:19:59.374Z,14.07
2022-09-01T00:22:28.006Z,15.18
2022-09-01T00:24:56.657Z,14.82
2022-09-01T00:27:30.709Z,15.52
2022-09-01T00:30:01.515Z,14.63
2022-09-01T00:32:30.020Z,15.18
2022-09-01T00:34:58.098Z,14.75
2022-09-01T00:37:26.295Z,13.48
2022-09-01T00:39:54.299Z,13.85
2022-09-01T00:42:22.574Z,14.02
2022-09-01T00:44:51.078Z,14.57
2022-09-01T00:47:20.782Z,18.42
2022-09-01T00:49:52.086Z,13.02
2022-09-01T00:52:24.367Z,13.80
2022-09-01T00:54:58.280Z,15.68
2022-09-01T00:57:27.176Z,15.35
2022-09-01T01:00:00.203Z,15.55
2022-09-01T01:02:30.015Z,16.13
2022-09-01T01:04:59.529Z,15.57
2022-09-01T01:07:28.478Z,16.15
2022-09-01T01:09:57.095Z,19.33
2022-09-01T01:12:29.927Z,21.40
2022-09-01T01:14:58.047Z,19.75
2022-09-01T01:17:26.171Z,22.80
2022-09-01T01:20:15.088Z,24.73
2022-09-01T01:23:06.470Z,22.50
2022-09-01T01:25:42.049Z,27.38
2022-09-01T01:28:18.424Z,28.83
2022-09-01T01:30:53.351Z,30.60
2022-09-01T01:33:24.518Z,31.15
2022-09-01T01:35:57.535Z,31.00
2022-09-01T01:38:28.072Z,31.70
2022-09-01T01:40:58.845Z,29.17
2022-09-01T01:43:28.965Z,28.42
2022-09-01T01:46:02.753Z,28.30
2022-09-01T01:48:39.479Z,27.50
2022-09-01T01:51:08.491Z,27.88
2022-09-01T01:53:36.594Z,27.77
2022-09-01T01:56:08.986Z,28.77
2022-09-01T01:58:37.807Z,27.95
2022-09-01T02:01:13.201Z,25.55
2022-09-01T02:03:42.227Z,25.02
2022-09-01T02:06:11.870Z,24.30
2022-09-01T02:08:41.588Z,27.58
2022-09-01T02:11:13.230Z,33.55
2022-09-01T02:13:41.241Z,29.73
2022-09-01T02:16:13.030Z,28.85
2022-09-01T02:18:48.147Z,23.80
2022-09-01T02:21:20.347Z,22.95
2022-09-01T02:23:50.954Z,25.08
2022-09-01T02:26:25.149Z,25.20
2022-09-01T02:28:56.045Z,24.38
2022-09-01T02:31:32.070Z,22.38
2022-09-01T02:34:02.320Z,22.38
2022-09-01T02:36:32.954Z,25.38
2022-09-01T02:39:01.949Z,23.55
2022-09-01T02:41:34.725Z,24.13
2022-09-01T02:44:04.141Z,24.52
2022-09-01T02:46:32.875Z,22.35
2022-09-01T02:49:04.547Z,23.80
2022-09-01T02:51:34.618Z,23.65
2022-09-01T02:54:03.121Z,25.42
2022-09-01T02:56:32.455Z,23.52
2022-09-01T02:59:01.818Z,28.13
2022-09-01T03:01:32.498Z,26.15
2022-09-01T03:04:08.120Z,26.33
2022-09-01T03:06:38.073Z,25.48
2022-09-01T03:09:09.472Z,26.33
2022-09-01T03:11:42.809Z,26.98
2022-09-01T03:14:10.997Z,26.30
2022-09-01T03:16:40.407Z,25.40
2022-09-01T03:19:12.083Z,24.92
2022-09-01T03:21:44.893Z,22.65
2022-09-01T03:24:18.547Z,23.70
2022-09-01T03:26:51.373Z,25.67
2022-09-01T03:29:21.178Z,27.25
2022-09-01T03:31:50.046Z,27.17
2022-09-01T03:34:20.790Z,26.20
2022-09-01T03:36:51.166Z,21.00
2022-09-01T03:39:27.866Z,20.27
2022-09-01T03:41:59.006Z,21.05
2022-09-01T03:44:28.163Z,21.95
2022-09-01T03:46:58.509Z,21.70
2022-09-01T03:49:28.699Z,22.38
2022-09-01T03:51:58.764Z,22.67
2022-09-01T03:54:30.456Z,23.95
2022-09-01T03:57:00.606Z,22.85
2022-09-01T03:59:30.460Z,22.88
2022-09-01T04:02:00.339Z,22.63
2022-09-01T04:04:31.546Z,21.55
2022-09-01T04:07:01.046Z,22.88
2022-09-01T04:09:30.534Z,23.10
2022-09-01T04:12:00.138Z,21.50
2022-09-01T04:14:29.232Z,26.50
2022-09-01T04:17:16.092Z,21.65
2022-09-01T04:19:44.323Z,21.92
2022-09-01T04:22:14.584Z,21.23
2022-09-01T04:24:45.665Z,20.30
2022-09-01T04:27:18.217Z,19.23
2022-09-01T04:29:48.533Z,20.17
2022-09-01T04:32:17.172Z,19.05
2022-09-01T04:34:51.173Z,20.20
2022-09-01T04:37:21.346Z,20.20
2022-09-01T04:40:01.953Z,20.63
2022-09-01T04:42:34.131Z,17.98
2022-09-01T04:45:10.508Z,18.65
2022-09-01T04:47:42.182Z,19.45
2022-09-01T04:50:17.545Z,20.08
2022-09-01T04:53:07.141Z,20.60
2022-09-01T04:55:43.747Z,22.88
2022-09-01T04:58:17.377Z,22.15
2022-09-01T05:00:48.574Z,25.13
2022-09-01T05:03:21.675Z,25.35
2022-09-01T05:06:04.020Z,23.67
2022-09-01T05:08:35.514Z,25.35
2022-09-01T05:11:09.104Z,25.65
2022-09-01T05:13:49.312Z,24.00
2022-09-01T05:16:25.243Z,25.75
2022-09-01T05:18:58.305Z,22.30
2022-09-01T05:21:32.541Z,23.65
2022-09-01T05:24:01.910Z,23.65
2022-09-01T05:26:34.584Z,21.05
2022-09-01T05:29:10.706Z,22.70
2022-09-01T05:31:39.222Z,23.83
2022-09-01T05:34:10.775Z,22.63
2022-09-01T05:36:46.137Z,21.52
2022-09-01T05:39:14.932Z,22.80
2022-09-01T05:41:43.928Z,24.25
2022-09-01T05:44:14.131Z,24.80
2022-09-01T05:46:43.060Z,23.50
2022-09-01T05:49:14.034Z,26.15
2022-09-01T05:51:45.673Z,27.25
2022-09-01T05:54:16.377Z,23.17
2022-09-01T05:56:46.166Z,24.35
2022-09-01T05:59:26.231Z,25.73
2022-09-01T06:02:12.482Z,25.95
2022-09-01T06:04:44.098Z,27.15
2022-09-01T06:07:25.017Z,23.90
2022-09-01T06:09:55.324Z,23.77
2022-09-01T06:12:25.082Z,24.67
2022-09-01T06:14:56.572Z,24.65
2022-09-01T06:17:30.142Z,25.02
2022-09-01T06:20:02.059Z,23.83
2022-09-01T06:22:31.347Z,23.42
2022-09-01T06:25:02.636Z,22.25
2022-09-01T06:27:44.672Z,21.98
2022-09-01T06:30:20.124Z,23.35
2022-09-01T06:32:56.322Z,23.48
2022-09-01T06:35:29.448Z,23.60
2022-09-01T06:37:58.626Z,23.55
2022-09-01T06:41:01.363Z,28.75
2022-09-01T06:43:30.832Z,25.50
2022-09-01T06:46:02.901Z,24.55
2022-09-01T06:48:32.056Z,22.90
2022-09-01T06:51:21.701Z,22.88
2022-09-01T06:54:00.822Z,25.70
2022-09-01T06:56:41.532Z,23.80
2022-09-01T06:59:15.594Z,26.75
2022-09-01T07:01:52.974Z,24.83
2022-09-01T07:04:31.398Z,25.67
2022-09-01T07:10:21.402Z,25.90
2022-09-01T07:13:09.013Z,25.15
2022-09-01T07:18:33.029Z,24.05
2022-09-01T07:21:36.831Z,26.30
2022-09-01T07:24:13.207Z,22.23
2022-09-01T07:26:55.439Z,21.60
2022-09-01T07:29:25.766Z,23.70
2022-09-01T07:43:37.609Z,21.15
2022-09-01T07:46:44.029Z,20.95
2022-09-01T07:50:09.778Z,18.83
2022-09-01T07:52:10.019Z,19.48
2022-09-01T07:54:39.156Z,20.55
2022-09-01T07:57:07.453Z,19.98
2022-09-01T07:59:37.457Z,19.08
2022-09-01T08:02:14.118Z,19.50
2022-09-01T08:04:44.210Z,22.50
2022-09-01T08:07:17.106Z,21.80
2022-09-01T08:09:45.875Z,18.65
2022-09-01T08:12:16.986Z,18.65
2022-09-01T08:17:51.153Z,20.67
2022-09-01T08:20:22.019Z,18.38
2022-09-01T08:22:58.226Z,17.33
2022-09-01T08:25:34.217Z,17.88
2022-09-01T08:28:03.487Z,19.45
2022-09-01T08:30:33.515Z,19.42
2022-09-01T08:33:18.059Z,16.15
2022-09-01T08:35:50.566Z,17.08
2022-09-01T08:38:21.513Z,18.35
2022-09-01T08:40:56.984Z,17.65
2022-09-01T08:43:48.067Z,15.05
2022-09-01T08:46:22.930Z,16.58
2022-09-01T08:49:24.247Z,16.98
2022-09-01T08:52:24.158Z,21.23
2022-09-01T08:55:01.769Z,14.90
2022-09-01T08:57:34.547Z,12.77
2022-09-01T09:00:28.166Z,13.60
2022-09-01T09:03:14.047Z,14.55
2022-09-01T09:05:59.097Z,13.73
2022-09-01T09:08:59.087Z,13.82
2022-09-01T09:11:42.174Z,10.38
2022-09-01T09:14:21.476Z,11.63
2022-09-01T09:16:54.059Z,11.73
2022-09-01T09:19:26.072Z,12.15
2022-09-01T09:21:57.082Z,10.40
2022-09-01T09:24:39.369Z,11.48
2022-09-01T09:27:09.762Z,11.98
2022-09-01T09:29:39.196Z,12.30
2022-09-01T09:35:19.484Z,10.23
2022-09-01T09:37:47.784Z,12.07
2022-09-01T09:40:19.066Z,11.43
2022-09-01T09:43:05.949Z,10.20
2022-09-01T09:45:36.746Z,10.47
2022-09-01T09:48:10.837Z,14.20
2022-09-01T09:50:42.024Z,9.45
2022-09-01T09:53:27.503Z,9.10
2022-09-01T09:56:00.231Z,9.43
2022-09-01T09:58:37.502Z,9.57
2022-09-01T10:01:15.359Z,11.63
2022-09-01T10:03:49.842Z,14.47
2022-09-01T10:06:32.133Z,10.18
2022-09-01T10:09:02.296Z,10.00
2022-09-01T10:11:40.970Z,8.93
2022-09-01T10:14:35.856Z,8.70
2022-09-01T10:17:10.783Z,9.67
2022-09-01T10:19:43.260Z,9.80
2022-09-01T10:22:12.588Z,8.85
2022-09-01T10:24:45.814Z,8.38
2022-09-01T10:27:20.040Z,8.83
2022-09-01T10:32:54.264Z,11.40
2022-09-01T10:35:27.519Z,9.20
2022-09-01T10:37:59.151Z,9.33
2022-09-01T10:40:49.124Z,9.23
2022-09-01T10:43:41.061Z,9.80
2022-09-01T10:46:49.381Z,9.47
2022-09-01T10:49:53.256Z,8.63
2022-09-01T10:52:54.523Z,7.70
2022-09-01T10:55:26.426Z,8.80
2022-09-01T11:01:11.828Z,8.10
2022-09-01T11:03:56.448Z,10.13
2022-09-01T11:07:12.275Z,6.93
2022-09-01T11:09:42.849Z,8.63
2022-09-01T11:12:33.452Z,8.83
2022-09-01T11:15:06.755Z,8.20
2022-09-01T11:17:38.173Z,7.50
2022-09-01T11:20:10.571Z,7.57
2022-09-01T11:22:41.904Z,7.47
2022-09-01T11:25:39.540Z,6.40
2022-09-01T11:28:42.840Z,7.30
2022-09-01T11:31:31.773Z,6.80
2022-09-01T11:34:13.333Z,6.80
2022-09-01T11:37:00.495Z,7.20
2022-09-01T11:39:40.833Z,7.50
2022-09-01T11:42:14.809Z,5.70
2022-09-01T11:44:49.256Z,6.33
2022-09-01T11:47:21.213Z,6.47
2022-09-01T11:49:56.528Z,6.07
2022-09-01T11:52:30.097Z,6.03
2022-09-01T11:55:00.188Z,6.27
2022-09-01T11:57:31.757Z,5.80
2022-09-01T12:00:02.039Z,6.20
2022-09-01T12:02:45.463Z,6.53
2022-09-01T12:05:29.511Z,6.40
2022-09-01T12:08:01.085Z,6.30
2022-09-01T12:10:34.234Z,7.07
2022-09-01T12:13:05.593Z,6.90
2022-09-01T12:15:36.593Z,6.20
2022-09-01T12:18:15.468Z,6.30
2022-09-01T12:20:43.624Z,6.47
2022-09-01T12:23:25.694Z,6.10
2022-09-01T12:25:56.923Z,5.80
2022-09-01T12:28:26.123Z,6.03
2022-09-01T12:31:00.437Z,5.60
2022-09-01T12:33:29.461Z,5.53
2022-09-01T12:36:16.746Z,5.53
2022-09-01T12:38:46.318Z,5.43
2022-09-01T12:41:33.029Z,4.90
2022-09-01T12:44:30.302Z,5.47
2022-09-01T12:47:01.676Z,5.07
2022-09-01T12:49:37.707Z,5.10
2022-09-01T12:52:26.119Z,5.10
2022-09-01T12:55:11.330Z,5.90
2022-09-01T12:57:45.349Z,4.77
2022-09-01T13:00:20.448Z,4.30
2022-09-01T13:02:50.717Z,5.47
2022-09-01T13:05:31.798Z,5.03
2022-09-01T13:08:02.944Z,5.40
2022-09-01T13:10:38.132Z,5.50
2022-09-01T13:13:06.586Z,6.13
2022-09-01T13:15:42.943Z,5.10
2022-09-01T13:18:11.655Z,4.77
2022-09-01T13:20:39.949Z,6.10
2022-09-01T13:23:08.249Z,5.23
2022-09-01T13:25:37.852Z,4.63
2022-09-01T13:28:07.572Z,3.87
2022-09-01T13:30:36.723Z,4.00
2022-09-01T13:33:21.241Z,4.63
2022-09-01T13:35:52.512Z,5.40
2022-09-01T13:38:21.605Z,4.70
2022-09-01T13:40:52.074Z,5.90
2022-09-01T13:43:22.619Z,5.27
2022-09-01T13:45:51.683Z,3.60
2022-09-01T13:48:21.173Z,3.90
2022-09-01T13:53:40.941Z,4.63
2022-09-01T13:56:10.522Z,5.70
2022-09-01T13:58:38.596Z,4.70
2022-09-01T14:01:07.590Z,5.40
2022-09-01T14:03:36.924Z,4.80
2022-09-01T14:06:07.214Z,4.20
2022-09-01T14:08:35.321Z,3.90
2022-09-01T14:11:04.006Z,4.23
2022-09-01T14:13:34.528Z,4.57
2022-09-01T14:16:03.081Z,4.80
2022-09-01T14:18:36.671Z,5.33
2022-09-01T14:21:05.837Z,4.20
2022-09-01T14:23:34.038Z,4.33
2022-09-01T14:26:02.088Z,4.50
2022-09-01T14:28:30.336Z,5.20
2022-09-01T14:33:27.345Z,5.33
2022-09-01T14:35:55.701Z,5.23
2022-09-01T14:38:24.077Z,4.80
2022-09-01T14:40:52.573Z,5.00
2022-09-01T14:43:21.089Z,5.97
2022-09-01T14:45:49.884Z,5.40
2022-09-01T14:48:20.682Z,5.33
2022-09-01T14:50:51.000Z,5.07
2022-09-01T14:53:19.601Z,5.30
2022-09-01T14:55:49.724Z,5.37
2022-09-01T14:58:20.784Z,5.47
2022-09-01T15:00:49.787Z,5.20
2022-09-01T15:03:22.815Z,5.57
2022-09-01T15:05:51.264Z,4.47
2022-09-01T15:08:19.814Z,5.00
2022-09-01T15:10:48.220Z,5.57
2022-09-01T15:13:16.714Z,5.67
2022-09-01T15:15:45.043Z,4.90
2022-09-01T15:18:13.484Z,5.03
2022-09-01T15:20:47.038Z,5.30
2022-09-01T15:23:18.201Z,5.43
2022-09-01T15:25:46.755Z,5.20
2022-09-01T15:28:15.468Z,5.20
2022-09-01T15:30:46.475Z,5.77
2022-09-01T15:33:16.725Z,5.70
2022-09-01T15:35:47.826Z,5.20
2022-09-01T15:38:17.709Z,5.73
2022-09-01T15:40:55.342Z,5.60
2022-09-01T15:43:27.873Z,5.87
2022-09-01T15:45:58.448Z,5.83
2022-09-01T15:48:27.541Z,5.30
2022-09-01T15:51:18.305Z,5.90
2022-09-01T15:53:46.424Z,5.30
2022-09-01T15:56:14.749Z,4.60
2022-09-01T15:59:00.222Z,5.30
2022-09-01T16:01:30.664Z,4.53
2022-09-01T16:03:59.568Z,5.27
2022-09-01T16:06:29.364Z,4.10
2022-09-01T16:08:57.679Z,5.57
2022-09-01T16:11:26.575Z,4.23
2022-09-01T16:13:55.924Z,4.23
2022-09-01T16:16:40.866Z,4.50
2022-09-01T16:19:22.787Z,4.03
2022-09-01T16:22:00.682Z,4.60
2022-09-01T16:24:29.122Z,3.93
2022-09-01T16:26:58.383Z,4.57
2022-09-01T16:29:35.929Z,5.27
2022-09-01T16:32:04.472Z,5.23
2022-09-01T16:34:34.261Z,4.50
2022-09-01T16:37:08.164Z,4.70
2022-09-01T16:39:41.729Z,4.97
2022-09-01T16:42:27.317Z,4.47
2022-09-01T16:45:05.964Z,4.57
2022-09-01T16:47:46.990Z,5.40
2022-09-01T16:50:24.021Z,5.40
2022-09-01T16:53:11.253Z,4.53
2022-09-01T16:55:48.371Z,4.53
2022-09-01T16:58:23.320Z,5.33
2022-09-01T17:00:59.513Z,5.50
2022-09-01T17:03:43.209Z,4.37
2022-09-01T17:06:20.657Z,6.00
2022-09-01T17:08:55.358Z,5.27
2022-09-01T17:11:28.212Z,3.90
2022-09-01T17:13:57.179Z,5.47
2022-09-01T17:16:29.680Z,5.10
2022-09-01T17:19:00.569Z,5.27
2022-09-01T17:21:34.435Z,4.70
2022-09-01T17:24:12.496Z,4.17
2022-09-01T17:26:42.180Z,5.27
2022-09-01T17:29:15.573Z,5.10
2022-09-01T17:31:52.234Z,5.50
2022-09-01T17:34:33.921Z,4.67
2022-09-01T17:37:15.702Z,4.70
2022-09-01T17:39:56.309Z,5.20
2022-09-01T17:42:33.788Z,5.10
2022-09-01T17:45:13.153Z,4.90
2022-09-01T17:47:51.624Z,5.40
2022-09-01T17:50:23.371Z,6.00
2022-09-01T17:53:00.734Z,4.87
2022-09-01T17:55:43.201Z,5.57
2022-09-01T17:58:20.689Z,5.60
2022-09-01T18:01:01.655Z,5.23
2022-09-01T18:03:46.728Z,5.10
2022-09-01T18:06:25.116Z,5.40
2022-09-01T18:08:57.082Z,5.10
2022-09-01T18:11:36.905Z,5.60
2022-09-01T18:14:08.518Z,5.50
2022-09-01T18:16:44.424Z,5.90
2022-09-01T18:19:20.488Z,5.83
2022-09-01T18:21:53.633Z,5.43
2022-09-01T18:24:27.371Z,6.00
2022-09-01T18:26:57.293Z,5.73
2022-09-01T18:29:29.627Z,5.77
2022-09-01T18:32:26.263Z,6.03
2022-09-01T18:35:14.708Z,6.53
2022-09-01T18:37:54.525Z,5.17
2022-09-01T18:40:29.429Z,6.40
2022-09-01T18:43:09.468Z,6.20
2022-09-01T18:45:49.150Z,5.63
2022-09-01T18:48:30.165Z,6.30
2022-09-01T18:51:04.388Z,6.73
2022-09-01T18:53:43.084Z,5.50
2022-09-01T18:56:21.906Z,5.93
2022-09-01T18:59:09.254Z,6.37
2022-09-01T19:01:53.563Z,5.60
2022-09-01T19:04:26.191Z,5.80
2022-09-01T19:07:05.310Z,4.87
2022-09-01T19:09:36.260Z,5.70
2022-09-01T19:12:16.814Z,5.20
2022-09-01T19:14:55.816Z,4.13
2022-09-01T19:17:44.494Z,5.03
2022-09-01T19:20:15.907Z,6.03
2022-09-01T19:22:49.290Z,6.68
2022-09-01T19:25:37.102Z,6.03
2022-09-01T19:28:12.605Z,4.75
2022-09-01T19:30:48.293Z,5.45
2022-09-01T19:33:21.533Z,5.60
2022-09-01T19:35:52.412Z,6.13
2022-09-01T19:38:27.566Z,5.85
2022-09-01T19:41:05.020Z,5.60
2022-09-01T19:43:40.454Z,5.60
2022-09-01T19:46:21.127Z,5.72
2022-09-01T19:48:55.812Z,6.18
2022-09-01T19:51:30.935Z,6.22
2022-09-01T19:54:04.545Z,5.30
2022-09-01T19:56:39.814Z,5.93
2022-09-01T19:59:15.604Z,5.88
2022-09-01T20:01:50.066Z,6.47
2022-09-01T20:04:32.101Z,6.82
2022-09-01T20:07:02.231Z,6.15
2022-09-01T20:09:38.467Z,6.10
2022-09-01T20:12:18.203Z,6.47
2022-09-01T20:15:08.876Z,6.00
2022-09-01T20:17:43.963Z,6.78
2022-09-01T20:20:16.105Z,6.63
2022-09-01T20:22:51.431Z,6.10
2022-09-01T20:25:21.902Z,6.20
2022-09-01T20:27:55.500Z,7.40
2022-09-01T20:30:26.201Z,6.32
2022-09-01T20:33:04.878Z,6.30
2022-09-01T20:35:40.304Z,6.43
2022-09-01T20:38:35.431Z,7.10
2022-09-01T20:41:10.588Z,6.15
2022-09-01T20:43:42.833Z,7.15
2022-09-01T20:46:11.196Z,6.20
2022-09-01T20:48:42.775Z,7.07
2022-09-01T20:51:16.236Z,6.55
2022-09-01T20:54:12.756Z,6.35
2022-09-01T20:56:47.676Z,7.40
2022-09-01T20:59:23.139Z,6.50
2022-09-01T21:01:59.279Z,7.35
2022-09-01T21:04:44.121Z,8.98
2022-09-01T21:07:17.914Z,6.43
2022-09-01T21:09:58.454Z,6.43
2022-09-01T21:12:36.423Z,10.57
2022-09-01T21:15:24.250Z,7.07
2022-09-01T21:18:08.478Z,6.55
2022-09-01T21:20:52.017Z,5.90
2022-09-01T21:23:21.043Z,6.90
2022-09-01T21:25:50.501Z,6.32
2022-09-01T21:28:21.715Z,6.60
2022-09-01T21:30:55.218Z,6.78
2022-09-01T21:33:23.959Z,6.25
2022-09-01T21:35:55.239Z,7.15
2022-09-01T21:38:23.547Z,8.05
2022-09-01T21:40:53.561Z,8.13
2022-09-01T21:43:24.969Z,7.22
2022-09-01T21:45:53.354Z,7.18
2022-09-01T21:48:21.897Z,6.80
2022-09-01T21:50:50.211Z,7.18
2022-09-01T21:53:20.139Z,7.30
2022-09-01T21:55:48.471Z,7.05
2022-09-01T21:58:16.548Z,7.25
2022-09-01T22:00:45.164Z,8.00
2022-09-01T22:03:13.708Z,7.20
2022-09-01T22:05:44.783Z,7.93
2022-09-01T22:08:17.277Z,6.95
2022-09-01T22:10:49.421Z,6.70
2022-09-01T22:13:18.280Z,6.75
2022-09-01T22:15:48.789Z,6.78
2022-09-01T22:18:18.336Z,6.55
2022-09-01T22:20:47.388Z,6.85
2022-09-01T22:23:16.262Z,6.50
2022-09-01T22:25:47.758Z,6.50
2022-09-01T22:28:15.919Z,6.72
2022-09-01T22:30:46.718Z,6.60
2022-09-01T22:33:15.899Z,7.03
2022-09-01T22:35:45.405Z,6.72
2022-09-01T22:38:14.609Z,7.63
2022-09-01T22:40:48.929Z,6.35
2022-09-01T22:43:17.804Z,6.53
2022-09-01T22:45:46.923Z,7.45
2022-09-01T22:48:15.563Z,7.15
2022-09-01T22:50:45.735Z,6.43
2022-09-01T22:53:15.500Z,6.75
2022-09-01T22:55:46.089Z,6.38
2022-09-01T22:58:16.949Z,7.18
2022-09-01T23:00:47.911Z,6.20
2022-09-01T23:03:16.642Z,6.57
2022-09-01T23:05:46.425Z,6.65
2022-09-01T23:08:15.337Z,6.57
2022-09-01T23:10:44.182Z,6.75
2022-09-01T23:13:12.434Z,7.45
2022-09-01T23:15:41.920Z,6.70
2022-09-01T23:18:10.000Z,7.25
2022-09-01T23:20:38.427Z,7.57
2022-09-01T23:23:06.709Z,6.05
2022-09-01T23:25:34.810Z,6.72
2022-09-01T23:28:03.682Z,6.28
2022-09-01T23:30:31.964Z,6.50
2022-09-01T23:33:01.545Z,6.18
2022-09-01T23:35:29.848Z,5.93
2022-09-01T23:37:58.044Z,7.03
2022-09-01T23:40:26.255Z,6.50
2022-09-01T23:42:54.607Z,6.43
2022-09-01T23:45:23.071Z,6.30
2022-09-01T23:47:51.297Z,5.53
2022-09-01T23:50:20.984Z,6.28
2022-09-01T23:52:49.751Z,5.97
2022-09-01T23:55:18.216Z,5.97
2022-09-01T23:57:46.140Z,7.22
